sensor_id;sensor_type;location;lat;lon;timestamp;P1;durP1;ratioP1;P2;durP2;ratioP2
79566;SDS011;69030;48.126;7.816;2023-04-21T00:00:54;4.00;;;2.88;;
79566;SDS011;69030;48.126;7.816;2023-04-21T00:03:20;8.52;;;3.30;;
79566;SDS011;69030;48.126;7.816;2023-04-21T00:05:47;4.63;;;2.45;;
79566;SDS011;69030;48.126;7.816;2023-04-21T00:08:13;3.75;;;3.38;;
79566;SDS011;69030;48.126;7.816;2023-04-21T00:10:39;4.18;;;3.15;;
79566;SDS011;69030;48.126;7.816;2023-04-21T00:13:04;4.10;;;3.47;;
79566;SDS011;69030;48.126;7.816;2023-04-21T00:15:30;4.38;;;3.42;;
79566;SDS011;69030;48.126;7.816;2023-04-21T00:17:55;4.57;;;4.00;;
79566;SDS011;69030;48.126;7.816;2023-04-21T00:20:22;4.82;;;3.03;;
79566;SDS011;69030;48.126;7.816;2023-04-21T00:22:48;4.95;;;3.55;;
79566;SDS011;69030;48.126;7.816;2023-04-21T00:25:14;4.18;;;3.13;;
79566;SDS011;69030;48.126;7.816;2023-04-21T00:27:39;3.35;;;3.05;;
79566;SDS011;69030;48.126;7.816;2023-04-21T00:30:05;2.90;;;2.60;;
79566;SDS011;69030;48.126;7.816;2023-04-21T00:32:31;4.68;;;3.55;;
79566;SDS011;69030;48.126;7.816;2023-04-21T00:34:56;3.72;;;3.42;;
79566;SDS011;69030;48.126;7.816;2023-04-21T00:37:21;4.22;;;3.75;;
79566;SDS011;69030;48.126;7.816;2023-04-21T00:39:47;4.28;;;3.45;;
79566;SDS011;69030;48.126;7.816;2023-04-21T00:42:14;3.53;;;3.22;;
79566;SDS011;69030;48.126;7.816;2023-04-21T00:44:40;3.20;;;2.72;;
79566;SDS011;69030;48.126;7.816;2023-04-21T00:47:05;1.98;;;1.10;;
79566;SDS011;69030;48.126;7.816;2023-04-21T00:49:31;4.57;;;2.67;;
79566;SDS011;69030;48.126;7.816;2023-04-21T00:51:56;3.47;;;2.25;;
79566;SDS011;69030;48.126;7.816;2023-04-21T00:54:22;3.25;;;2.80;;
79566;SDS011;69030;48.126;7.816;2023-04-21T00:56:49;2.90;;;2.35;;
79566;SDS011;69030;48.126;7.816;2023-04-21T00:59:14;2.65;;;2.40;;
79566;SDS011;69030;48.126;7.816;2023-04-21T01:01:40;4.35;;;2.92;;
79566;SDS011;69030;48.126;7.816;2023-04-21T01:04:05;3.03;;;2.75;;
79566;SDS011;69030;48.126;7.816;2023-04-21T01:06:31;2.42;;;1.88;;
79566;SDS011;69030;48.126;7.816;2023-04-21T01:08:58;3.22;;;2.95;;
79566;SDS011;69030;48.126;7.816;2023-04-21T01:11:24;4.60;;;2.95;;
79566;SDS011;69030;48.126;7.816;2023-04-21T01:13:53;2.95;;;2.75;;
79566;SDS011;69030;48.126;7.816;2023-04-21T01:16:19;2.92;;;1.42;;
79566;SDS011;69030;48.126;7.816;2023-04-21T01:18:45;2.80;;;1.13;;
79566;SDS011;69030;48.126;7.816;2023-04-21T01:21:11;2.72;;;2.38;;
79566;SDS011;69030;48.126;7.816;2023-04-21T01:23:38;3.78;;;2.83;;
79566;SDS011;69030;48.126;7.816;2023-04-21T01:26:04;3.00;;;2.70;;
79566;SDS011;69030;48.126;7.816;2023-04-21T01:28:30;3.35;;;3.05;;
79566;SDS011;69030;48.126;7.816;2023-04-21T01:30:56;3.95;;;3.63;;
79566;SDS011;69030;48.126;7.816;2023-04-21T01:33:21;3.50;;;3.17;;
79566;SDS011;69030;48.126;7.816;2023-04-21T01:35:47;3.38;;;3.05;;
79566;SDS011;69030;48.126;7.816;2023-04-21T01:38:13;5.13;;;3.10;;
79566;SDS011;69030;48.126;7.816;2023-04-21T01:40:42;2.85;;;2.40;;
79566;SDS011;69030;48.126;7.816;2023-04-21T01:43:10;3.67;;;3.08;;
79566;SDS011;69030;48.126;7.816;2023-04-21T01:45:36;1.65;;;1.08;;
79566;SDS011;69030;48.126;7.816;2023-04-21T01:48:01;3.97;;;3.63;;
79566;SDS011;69030;48.126;7.816;2023-04-21T01:50:26;3.17;;;2.53;;
79566;SDS011;69030;48.126;7.816;2023-04-21T01:52:52;3.03;;;2.72;;
79566;SDS011;69030;48.126;7.816;2023-04-21T01:55:18;3.22;;;2.42;;
79566;SDS011;69030;48.126;7.816;2023-04-21T01:57:43;3.20;;;2.15;;
79566;SDS011;69030;48.126;7.816;2023-04-21T02:00:09;3.13;;;2.75;;
79566;SDS011;69030;48.126;7.816;2023-04-21T02:02:35;2.58;;;2.38;;
79566;SDS011;69030;48.126;7.816;2023-04-21T02:05:00;4.88;;;4.40;;
79566;SDS011;69030;48.126;7.816;2023-04-21T02:07:25;3.25;;;2.75;;
79566;SDS011;69030;48.126;7.816;2023-04-21T02:09:51;3.63;;;3.33;;
79566;SDS011;69030;48.126;7.816;2023-04-21T02:12:16;3.58;;;2.67;;
79566;SDS011;69030;48.126;7.816;2023-04-21T02:14:41;3.03;;;1.20;;
79566;SDS011;69030;48.126;7.816;2023-04-21T02:17:07;3.65;;;2.97;;
79566;SDS011;69030;48.126;7.816;2023-04-21T02:19:32;4.15;;;3.47;;
79566;SDS011;69030;48.126;7.816;2023-04-21T02:21:57;3.53;;;3.15;;
79566;SDS011;69030;48.126;7.816;2023-04-21T02:24:23;3.20;;;2.90;;
79566;SDS011;69030;48.126;7.816;2023-04-21T02:26:48;2.90;;;2.70;;
79566;SDS011;69030;48.126;7.816;2023-04-21T02:29:14;2.72;;;2.47;;
79566;SDS011;69030;48.126;7.816;2023-04-21T02:31:39;2.65;;;1.95;;
79566;SDS011;69030;48.126;7.816;2023-04-21T02:36:37;4.32;;;3.92;;
79566;SDS011;69030;48.126;7.816;2023-04-21T02:39:02;5.45;;;3.55;;
79566;SDS011;69030;48.126;7.816;2023-04-21T02:41:28;3.35;;;2.85;;
79566;SDS011;69030;48.126;7.816;2023-04-21T02:43:53;3.13;;;2.92;;
79566;SDS011;69030;48.126;7.816;2023-04-21T02:46:18;3.05;;;2.85;;
79566;SDS011;69030;48.126;7.816;2023-04-21T02:48:44;3.22;;;2.92;;
79566;SDS011;69030;48.126;7.816;2023-04-21T02:51:12;2.00;;;1.58;;
79566;SDS011;69030;48.126;7.816;2023-04-21T02:53:38;6.20;;;3.20;;
79566;SDS011;69030;48.126;7.816;2023-04-21T02:56:05;3.92;;;3.60;;
79566;SDS011;69030;48.126;7.816;2023-04-21T02:58:32;3.42;;;3.13;;
79566;SDS011;69030;48.126;7.816;2023-04-21T03:00:58;2.63;;;2.42;;
79566;SDS011;69030;48.126;7.816;2023-04-21T03:03:24;3.70;;;3.40;;
79566;SDS011;69030;48.126;7.816;2023-04-21T03:05:54;5.35;;;4.85;;
79566;SDS011;69030;48.126;7.816;2023-04-21T03:08:23;5.63;;;3.65;;
79566;SDS011;69030;48.126;7.816;2023-04-21T03:10:48;4.75;;;4.35;;
79566;SDS011;69030;48.126;7.816;2023-04-21T03:13:13;4.22;;;3.90;;
79566;SDS011;69030;48.126;7.816;2023-04-21T03:15:39;3.53;;;3.22;;
79566;SDS011;69030;48.126;7.816;2023-04-21T03:18:04;3.95;;;3.50;;
79566;SDS011;69030;48.126;7.816;2023-04-21T03:20:30;4.18;;;3.83;;
79566;SDS011;69030;48.126;7.816;2023-04-21T03:22:56;4.25;;;3.00;;
79566;SDS011;69030;48.126;7.816;2023-04-21T03:25:21;3.55;;;3.20;;
79566;SDS011;69030;48.126;7.816;2023-04-21T03:27:46;5.10;;;3.45;;
79566;SDS011;69030;48.126;7.816;2023-04-21T03:30:12;2.92;;;2.47;;
79566;SDS011;69030;48.126;7.816;2023-04-21T03:32:37;3.78;;;2.90;;
79566;SDS011;69030;48.126;7.816;2023-04-21T03:35:02;2.53;;;2.33;;
79566;SDS011;69030;48.126;7.816;2023-04-21T03:37:28;3.38;;;2.95;;
79566;SDS011;69030;48.126;7.816;2023-04-21T03:39:53;5.15;;;3.35;;
79566;SDS011;69030;48.126;7.816;2023-04-21T03:42:19;4.20;;;3.80;;
79566;SDS011;69030;48.126;7.816;2023-04-21T03:44:44;3.47;;;3.17;;
79566;SDS011;69030;48.126;7.816;2023-04-21T03:47:09;2.60;;;2.40;;
79566;SDS011;69030;48.126;7.816;2023-04-21T03:49:34;3.70;;;3.40;;
79566;SDS011;69030;48.126;7.816;2023-04-21T03:52:00;5.47;;;3.05;;
79566;SDS011;69030;48.126;7.816;2023-04-21T03:54:25;4.72;;;2.80;;
79566;SDS011;69030;48.126;7.816;2023-04-21T03:56:51;4.40;;;3.97;;
79566;SDS011;69030;48.126;7.816;2023-04-21T03:59:16;4.00;;;3.60;;
79566;SDS011;69030;48.126;7.816;2023-04-21T04:01:42;5.00;;;4.10;;
79566;SDS011;69030;48.126;7.816;2023-04-21T04:04:07;4.80;;;4.05;;
79566;SDS011;69030;48.126;7.816;2023-04-21T04:06:32;4.13;;;3.13;;
79566;SDS011;69030;48.126;7.816;2023-04-21T04:08:59;2.90;;;2.55;;
79566;SDS011;69030;48.126;7.816;2023-04-21T04:11:28;3.53;;;3.20;;
79566;SDS011;69030;48.126;7.816;2023-04-21T04:13:53;3.45;;;3.15;;
79566;SDS011;69030;48.126;7.816;2023-04-21T04:16:19;4.13;;;3.20;;
79566;SDS011;69030;48.126;7.816;2023-04-21T04:18:44;4.80;;;4.38;;
79566;SDS011;69030;48.126;7.816;2023-04-21T04:21:09;6.18;;;4.75;;
79566;SDS011;69030;48.126;7.816;2023-04-21T04:23:35;5.35;;;3.47;;
79566;SDS011;69030;48.126;7.816;2023-04-21T04:26:03;3.38;;;2.00;;
79566;SDS011;69030;48.126;7.816;2023-04-21T04:28:29;6.93;;;4.03;;
79566;SDS011;69030;48.126;7.816;2023-04-21T04:30:55;4.45;;;3.85;;
79566;SDS011;69030;48.126;7.816;2023-04-21T04:33:20;4.05;;;3.63;;
79566;SDS011;69030;48.126;7.816;2023-04-21T04:35:46;4.78;;;3.67;;
79566;SDS011;69030;48.126;7.816;2023-04-21T04:38:11;4.97;;;4.18;;
79566;SDS011;69030;48.126;7.816;2023-04-21T04:40:38;3.58;;;3.28;;
79566;SDS011;69030;48.126;7.816;2023-04-21T04:43:04;5.05;;;3.10;;
79566;SDS011;69030;48.126;7.816;2023-04-21T04:45:30;3.75;;;3.33;;
79566;SDS011;69030;48.126;7.816;2023-04-21T04:47:57;3.58;;;3.30;;
79566;SDS011;69030;48.126;7.816;2023-04-21T04:50:23;3.63;;;3.33;;
79566;SDS011;69030;48.126;7.816;2023-04-21T04:52:48;4.97;;;4.47;;
79566;SDS011;69030;48.126;7.816;2023-04-21T04:55:14;4.70;;;4.30;;
79566;SDS011;69030;48.126;7.816;2023-04-21T04:57:39;4.63;;;4.22;;
79566;SDS011;69030;48.126;7.816;2023-04-21T05:00:05;4.35;;;3.95;;
79566;SDS011;69030;48.126;7.816;2023-04-21T05:02:44;5.07;;;4.40;;
79566;SDS011;69030;48.126;7.816;2023-04-21T05:05:12;4.00;;;3.45;;
79566;SDS011;69030;48.126;7.816;2023-04-21T05:07:37;7.15;;;4.78;;
79566;SDS011;69030;48.126;7.816;2023-04-21T05:10:03;5.43;;;4.93;;
79566;SDS011;69030;48.126;7.816;2023-04-21T05:12:29;5.05;;;3.83;;
79566;SDS011;69030;48.126;7.816;2023-04-21T05:14:56;5.50;;;4.93;;
79566;SDS011;69030;48.126;7.816;2023-04-21T05:17:21;5.10;;;4.60;;
79566;SDS011;69030;48.126;7.816;2023-04-21T05:19:47;6.72;;;5.00;;
79566;SDS011;69030;48.126;7.816;2023-04-21T05:22:12;4.63;;;4.13;;
79566;SDS011;69030;48.126;7.816;2023-04-21T05:24:39;4.43;;;3.97;;
79566;SDS011;69030;48.126;7.816;2023-04-21T05:27:05;3.72;;;3.30;;
79566;SDS011;69030;48.126;7.816;2023-04-21T05:29:31;4.70;;;3.67;;
79566;SDS011;69030;48.126;7.816;2023-04-21T05:31:58;4.53;;;3.85;;
79566;SDS011;69030;48.126;7.816;2023-04-21T05:34:23;4.75;;;4.25;;
79566;SDS011;69030;48.126;7.816;2023-04-21T05:36:49;3.88;;;3.40;;
79566;SDS011;69030;48.126;7.816;2023-04-21T05:39:14;4.15;;;3.85;;
79566;SDS011;69030;48.126;7.816;2023-04-21T05:41:41;5.10;;;4.43;;
79566;SDS011;69030;48.126;7.816;2023-04-21T05:44:07;4.82;;;4.35;;
79566;SDS011;69030;48.126;7.816;2023-04-21T05:46:32;4.55;;;3.60;;
79566;SDS011;69030;48.126;7.816;2023-04-21T05:48:58;4.93;;;4.43;;
79566;SDS011;69030;48.126;7.816;2023-04-21T05:51:26;7.25;;;5.72;;
79566;SDS011;69030;48.126;7.816;2023-04-21T05:53:51;4.25;;;3.88;;
79566;SDS011;69030;48.126;7.816;2023-04-21T05:56:17;3.63;;;3.33;;
79566;SDS011;69030;48.126;7.816;2023-04-21T05:58:42;4.07;;;3.30;;
79566;SDS011;69030;48.126;7.816;2023-04-21T06:01:08;3.53;;;3.20;;
79566;SDS011;69030;48.126;7.816;2023-04-21T06:03:33;4.30;;;3.70;;
79566;SDS011;69030;48.126;7.816;2023-04-21T06:05:59;4.28;;;3.95;;
79566;SDS011;69030;48.126;7.816;2023-04-21T06:08:26;4.15;;;3.83;;
79566;SDS011;69030;48.126;7.816;2023-04-21T06:10:51;4.80;;;4.43;;
79566;SDS011;69030;48.126;7.816;2023-04-21T06:13:16;6.35;;;4.45;;
79566;SDS011;69030;48.126;7.816;2023-04-21T06:15:42;7.10;;;4.03;;
79566;SDS011;69030;48.126;7.816;2023-04-21T06:18:07;7.57;;;4.15;;
79566;SDS011;69030;48.126;7.816;2023-04-21T06:20:32;9.60;;;3.97;;
79566;SDS011;69030;48.126;7.816;2023-04-21T06:22:58;5.90;;;5.35;;
79566;SDS011;69030;48.126;7.816;2023-04-21T06:25:23;3.97;;;3.20;;
79566;SDS011;69030;48.126;7.816;2023-04-21T06:27:49;3.58;;;3.33;;
79566;SDS011;69030;48.126;7.816;2023-04-21T06:30:15;3.58;;;3.28;;
79566;SDS011;69030;48.126;7.816;2023-04-21T06:32:42;3.33;;;2.90;;
79566;SDS011;69030;48.126;7.816;2023-04-21T06:35:10;4.10;;;3.38;;
79566;SDS011;69030;48.126;7.816;2023-04-21T06:37:35;5.05;;;3.85;;
79566;SDS011;69030;48.126;7.816;2023-04-21T06:40:01;4.65;;;4.25;;
79566;SDS011;69030;48.126;7.816;2023-04-21T06:42:26;3.03;;;2.17;;
79566;SDS011;69030;48.126;7.816;2023-04-21T06:44:51;3.72;;;3.42;;
79566;SDS011;69030;48.126;7.816;2023-04-21T06:47:17;3.95;;;3.65;;
79566;SDS011;69030;48.126;7.816;2023-04-21T06:49:42;4.15;;;3.53;;
79566;SDS011;69030;48.126;7.816;2023-04-21T06:52:07;3.72;;;3.42;;
79566;SDS011;69030;48.126;7.816;2023-04-21T06:54:33;3.70;;;3.40;;
79566;SDS011;69030;48.126;7.816;2023-04-21T06:56:58;4.47;;;4.07;;
79566;SDS011;69030;48.126;7.816;2023-04-21T06:59:24;3.85;;;3.55;;
79566;SDS011;69030;48.126;7.816;2023-04-21T07:01:49;5.13;;;4.72;;
79566;SDS011;69030;48.126;7.816;2023-04-21T07:04:16;5.32;;;4.40;;
79566;SDS011;69030;48.126;7.816;2023-04-21T07:06:42;3.95;;;3.65;;
79566;SDS011;69030;48.126;7.816;2023-04-21T07:09:07;4.13;;;3.83;;
79566;SDS011;69030;48.126;7.816;2023-04-21T07:11:33;3.92;;;3.63;;
79566;SDS011;69030;48.126;7.816;2023-04-21T07:13:58;4.00;;;3.70;;
79566;SDS011;69030;48.126;7.816;2023-04-21T07:16:26;3.47;;;3.17;;
79566;SDS011;69030;48.126;7.816;2023-04-21T07:18:54;4.03;;;3.72;;
79566;SDS011;69030;48.126;7.816;2023-04-21T07:21:20;3.20;;;2.50;;
79566;SDS011;69030;48.126;7.816;2023-04-21T07:23:45;3.42;;;3.13;;
79566;SDS011;69030;48.126;7.816;2023-04-21T07:26:10;3.35;;;3.05;;
79566;SDS011;69030;48.126;7.816;2023-04-21T07:28:36;4.38;;;3.50;;
79566;SDS011;69030;48.126;7.816;2023-04-21T07:31:02;3.67;;;3.03;;
79566;SDS011;69030;48.126;7.816;2023-04-21T07:33:28;3.85;;;2.60;;
79566;SDS011;69030;48.126;7.816;2023-04-21T07:35:53;4.03;;;3.63;;
79566;SDS011;69030;48.126;7.816;2023-04-21T07:38:19;4.30;;;3.50;;
79566;SDS011;69030;48.126;7.816;2023-04-21T07:40:44;4.43;;;3.70;;
79566;SDS011;69030;48.126;7.816;2023-04-21T07:43:09;3.67;;;3.38;;
79566;SDS011;69030;48.126;7.816;2023-04-21T07:45:36;3.08;;;2.72;;
79566;SDS011;69030;48.126;7.816;2023-04-21T07:48:01;3.72;;;3.38;;
79566;SDS011;69030;48.126;7.816;2023-04-21T07:50:26;4.05;;;2.47;;
79566;SDS011;69030;48.126;7.816;2023-04-21T07:52:52;4.00;;;3.67;;
79566;SDS011;69030;48.126;7.816;2023-04-21T07:55:17;3.70;;;3.38;;
79566;SDS011;69030;48.126;7.816;2023-04-21T07:57:43;4.53;;;4.13;;
79566;SDS011;69030;48.126;7.816;2023-04-21T08:00:08;4.25;;;3.47;;
79566;SDS011;69030;48.126;7.816;2023-04-21T08:02:34;5.53;;;4.13;;
79566;SDS011;69030;48.126;7.816;2023-04-21T08:05:00;4.40;;;4.00;;
79566;SDS011;69030;48.126;7.816;2023-04-21T08:07:25;3.33;;;2.95;;
79566;SDS011;69030;48.126;7.816;2023-04-21T08:09:50;6.07;;;4.18;;
79566;SDS011;69030;48.126;7.816;2023-04-21T08:12:16;5.25;;;4.70;;
79566;SDS011;69030;48.126;7.816;2023-04-21T08:14:41;4.05;;;3.70;;
79566;SDS011;69030;48.126;7.816;2023-04-21T08:17:06;3.78;;;2.15;;
79566;SDS011;69030;48.126;7.816;2023-04-21T08:19:32;5.07;;;4.10;;
79566;SDS011;69030;48.126;7.816;2023-04-21T08:21:57;5.70;;;4.00;;
79566;SDS011;69030;48.126;7.816;2023-04-21T08:24:23;4.20;;;3.47;;
79566;SDS011;69030;48.126;7.816;2023-04-21T08:26:48;5.55;;;4.03;;
79566;SDS011;69030;48.126;7.816;2023-04-21T08:29:13;11.05;;;4.20;;
79566;SDS011;69030;48.126;7.816;2023-04-21T08:31:39;5.05;;;4.15;;
79566;SDS011;69030;48.126;7.816;2023-04-21T08:34:04;5.30;;;4.80;;
79566;SDS011;69030;48.126;7.816;2023-04-21T08:36:31;5.22;;;4.72;;
79566;SDS011;69030;48.126;7.816;2023-04-21T08:38:56;5.43;;;4.10;;
79566;SDS011;69030;48.126;7.816;2023-04-21T08:41:22;3.92;;;3.53;;
79566;SDS011;69030;48.126;7.816;2023-04-21T08:43:48;4.35;;;3.72;;
79566;SDS011;69030;48.126;7.816;2023-04-21T08:46:13;9.48;;;4.25;;
79566;SDS011;69030;48.126;7.816;2023-04-21T08:48:40;5.72;;;4.82;;
79566;SDS011;69030;48.126;7.816;2023-04-21T08:51:06;5.22;;;4.72;;
79566;SDS011;69030;48.126;7.816;2023-04-21T08:53:33;4.88;;;4.32;;
79566;SDS011;69030;48.126;7.816;2023-04-21T08:55:59;5.35;;;4.32;;
79566;SDS011;69030;48.126;7.816;2023-04-21T08:58:25;3.70;;;3.30;;
79566;SDS011;69030;48.126;7.816;2023-04-21T09:00:50;6.13;;;4.03;;
79566;SDS011;69030;48.126;7.816;2023-04-21T09:03:22;5.07;;;4.13;;
79566;SDS011;69030;48.126;7.816;2023-04-21T09:06:01;9.30;;;4.75;;
79566;SDS011;69030;48.126;7.816;2023-04-21T09:08:27;4.55;;;4.13;;
79566;SDS011;69030;48.126;7.816;2023-04-21T09:10:54;6.28;;;4.65;;
79566;SDS011;69030;48.126;7.816;2023-04-21T09:13:20;6.60;;;5.20;;
79566;SDS011;69030;48.126;7.816;2023-04-21T09:15:53;6.35;;;5.75;;
79566;SDS011;69030;48.126;7.816;2023-04-21T09:18:19;8.70;;;4.50;;
79566;SDS011;69030;48.126;7.816;2023-04-21T09:20:47;11.23;;;6.78;;
79566;SDS011;69030;48.126;7.816;2023-04-21T09:23:14;6.65;;;4.80;;
79566;SDS011;69030;48.126;7.816;2023-04-21T09:25:40;7.70;;;6.18;;
79566;SDS011;69030;48.126;7.816;2023-04-21T09:28:07;9.48;;;5.38;;
79566;SDS011;69030;48.126;7.816;2023-04-21T09:30:36;10.40;;;7.07;;
79566;SDS011;69030;48.126;7.816;2023-04-21T09:33:06;10.32;;;8.30;;
79566;SDS011;69030;48.126;7.816;2023-04-21T09:35:32;11.57;;;7.43;;
79566;SDS011;69030;48.126;7.816;2023-04-21T09:37:59;10.60;;;8.30;;
79566;SDS011;69030;48.126;7.816;2023-04-21T09:40:25;9.35;;;8.00;;
79566;SDS011;69030;48.126;7.816;2023-04-21T09:42:53;10.80;;;6.63;;
79566;SDS011;69030;48.126;7.816;2023-04-21T09:45:18;11.25;;;8.50;;
79566;SDS011;69030;48.126;7.816;2023-04-21T09:47:44;9.02;;;6.97;;
79566;SDS011;69030;48.126;7.816;2023-04-21T09:50:14;13.63;;;10.40;;
79566;SDS011;69030;48.126;7.816;2023-04-21T09:52:41;11.32;;;8.88;;
79566;SDS011;69030;48.126;7.816;2023-04-21T09:55:10;11.70;;;6.78;;
79566;SDS011;69030;48.126;7.816;2023-04-21T09:57:37;12.95;;;8.82;;
79566;SDS011;69030;48.126;7.816;2023-04-21T10:00:04;11.82;;;8.27;;
79566;SDS011;69030;48.126;7.816;2023-04-21T10:02:46;10.77;;;8.30;;
79566;SDS011;69030;48.126;7.816;2023-04-21T10:05:12;12.15;;;8.23;;
79566;SDS011;69030;48.126;7.816;2023-04-21T10:07:38;10.43;;;9.32;;
79566;SDS011;69030;48.126;7.816;2023-04-21T10:10:05;12.93;;;9.63;;
79566;SDS011;69030;48.126;7.816;2023-04-21T10:12:32;12.70;;;9.77;;
79566;SDS011;69030;48.126;7.816;2023-04-21T10:14:58;13.82;;;10.90;;
79566;SDS011;69030;48.126;7.816;2023-04-21T10:17:28;11.80;;;8.95;;
79566;SDS011;69030;48.126;7.816;2023-04-21T10:19:54;12.95;;;9.45;;
79566;SDS011;69030;48.126;7.816;2023-04-21T10:22:30;9.52;;;8.05;;
79566;SDS011;69030;48.126;7.816;2023-04-21T10:25:02;11.18;;;8.38;;
79566;SDS011;69030;48.126;7.816;2023-04-21T10:30:22;12.63;;;8.85;;
79566;SDS011;69030;48.126;7.816;2023-04-21T10:33:03;9.40;;;7.38;;
79566;SDS011;69030;48.126;7.816;2023-04-21T10:38:41;9.90;;;8.10;;
79566;SDS011;69030;48.126;7.816;2023-04-21T10:41:28;10.07;;;7.60;;
79566;SDS011;69030;48.126;7.816;2023-04-21T10:44:00;8.57;;;5.50;;
79566;SDS011;69030;48.126;7.816;2023-04-21T10:49:09;9.88;;;8.32;;
79566;SDS011;69030;48.126;7.816;2023-04-21T10:55:14;7.47;;;4.97;;
79566;SDS011;69030;48.126;7.816;2023-04-21T10:57:20;10.55;;;8.52;;
79566;SDS011;69030;48.126;7.816;2023-04-21T10:59:46;9.43;;;7.88;;
79566;SDS011;69030;48.126;7.816;2023-04-21T11:02:12;7.63;;;6.82;;
79566;SDS011;69030;48.126;7.816;2023-04-21T11:04:39;9.90;;;7.80;;
79566;SDS011;69030;48.126;7.816;2023-04-21T11:07:21;10.93;;;7.55;;
79566;SDS011;69030;48.126;7.816;2023-04-21T11:09:47;9.80;;;7.85;;
79566;SDS011;69030;48.126;7.816;2023-04-21T11:12:31;10.25;;;6.32;;
79566;SDS011;69030;48.126;7.816;2023-04-21T11:15:06;10.77;;;8.82;;
79566;SDS011;69030;48.126;7.816;2023-04-21T11:17:33;9.98;;;8.18;;
79566;SDS011;69030;48.126;7.816;2023-04-21T11:20:00;9.68;;;7.60;;
79566;SDS011;69030;48.126;7.816;2023-04-21T11:22:26;10.18;;;9.05;;
79566;SDS011;69030;48.126;7.816;2023-04-21T11:24:55;9.60;;;8.18;;
79566;SDS011;69030;48.126;7.816;2023-04-21T11:27:21;10.10;;;7.15;;
79566;SDS011;69030;48.126;7.816;2023-04-21T11:29:48;11.45;;;8.18;;
79566;SDS011;69030;48.126;7.816;2023-04-21T11:32:14;11.55;;;9.05;;
79566;SDS011;69030;48.126;7.816;2023-04-21T11:34:40;9.50;;;8.35;;
79566;SDS011;69030;48.126;7.816;2023-04-21T11:37:09;12.02;;;7.72;;
79566;SDS011;69030;48.126;7.816;2023-04-21T11:39:39;13.93;;;7.40;;
79566;SDS011;69030;48.126;7.816;2023-04-21T11:42:05;9.43;;;7.75;;
79566;SDS011;69030;48.126;7.816;2023-04-21T11:46:57;10.90;;;8.45;;
79566;SDS011;69030;48.126;7.816;2023-04-21T11:49:26;11.82;;;8.77;;
79566;SDS011;69030;48.126;7.816;2023-04-21T11:51:54;9.25;;;8.02;;
79566;SDS011;69030;48.126;7.816;2023-04-21T11:54:20;9.95;;;7.93;;
79566;SDS011;69030;48.126;7.816;2023-04-21T11:56:48;10.57;;;7.78;;
79566;SDS011;69030;48.126;7.816;2023-04-21T11:59:15;11.02;;;8.57;;
79566;SDS011;69030;48.126;7.816;2023-04-21T12:01:47;11.20;;;6.35;;
79566;SDS011;69030;48.126;7.816;2023-04-21T12:04:17;9.75;;;8.18;;
79566;SDS011;69030;48.126;7.816;2023-04-21T12:06:44;13.40;;;9.13;;
79566;SDS011;69030;48.126;7.816;2023-04-21T12:09:17;9.70;;;7.93;;
79566;SDS011;69030;48.126;7.816;2023-04-21T12:11:48;9.35;;;6.53;;
79566;SDS011;69030;48.126;7.816;2023-04-21T12:14:14;10.73;;;8.55;;
79566;SDS011;69030;48.126;7.816;2023-04-21T12:16:40;9.18;;;7.15;;
79566;SDS011;69030;48.126;7.816;2023-04-21T12:19:06;9.10;;;7.80;;
79566;SDS011;69030;48.126;7.816;2023-04-21T12:21:31;8.45;;;7.50;;
79566;SDS011;69030;48.126;7.816;2023-04-21T12:23:57;9.52;;;8.13;;
79566;SDS011;69030;48.126;7.816;2023-04-21T12:26:22;10.02;;;7.82;;
79566;SDS011;69030;48.126;7.816;2023-04-21T12:28:48;12.75;;;7.65;;
79566;SDS011;69030;48.126;7.816;2023-04-21T12:31:14;9.73;;;7.95;;
79566;SDS011;69030;48.126;7.816;2023-04-21T12:33:39;9.32;;;7.28;;
79566;SDS011;69030;48.126;7.816;2023-04-21T12:36:04;8.07;;;6.72;;
79566;SDS011;69030;48.126;7.816;2023-04-21T12:38:30;11.13;;;7.10;;
79566;SDS011;69030;48.126;7.816;2023-04-21T12:40:56;11.00;;;8.23;;
79566;SDS011;69030;48.126;7.816;2023-04-21T12:43:21;12.18;;;9.65;;
79566;SDS011;69030;48.126;7.816;2023-04-21T12:45:47;10.35;;;8.40;;
79566;SDS011;69030;48.126;7.816;2023-04-21T12:48:13;9.55;;;7.25;;
79566;SDS011;69030;48.126;7.816;2023-04-21T12:50:38;11.45;;;8.73;;
79566;SDS011;69030;48.126;7.816;2023-04-21T12:53:04;12.23;;;9.18;;
79566;SDS011;69030;48.126;7.816;2023-04-21T12:55:29;10.00;;;7.90;;
79566;SDS011;69030;48.126;7.816;2023-04-21T12:57:54;11.98;;;8.38;;
79566;SDS011;69030;48.126;7.816;2023-04-21T13:00:20;9.57;;;7.68;;
79566;SDS011;69030;48.126;7.816;2023-04-21T13:02:45;11.52;;;8.77;;
79566;SDS011;69030;48.126;7.816;2023-04-21T13:05:11;14.63;;;8.20;;
79566;SDS011;69030;48.126;7.816;2023-04-21T13:07:37;11.18;;;8.52;;
79566;SDS011;69030;48.126;7.816;2023-04-21T13:10:06;11.27;;;9.38;;
79566;SDS011;69030;48.126;7.816;2023-04-21T13:12:32;11.32;;;7.13;;
79566;SDS011;69030;48.126;7.816;2023-04-21T13:14:57;9.77;;;8.20;;
79566;SDS011;69030;48.126;7.816;2023-04-21T13:17:23;11.27;;;7.30;;
79566;SDS011;69030;48.126;7.816;2023-04-21T13:19:48;10.20;;;7.78;;
79566;SDS011;69030;48.126;7.816;2023-04-21T13:22:14;9.27;;;8.02;;
79566;SDS011;69030;48.126;7.816;2023-04-21T13:24:40;10.55;;;8.05;;
79566;SDS011;69030;48.126;7.816;2023-04-21T13:27:05;13.23;;;7.53;;
79566;SDS011;69030;48.126;7.816;2023-04-21T13:29:30;10.57;;;7.47;;
79566;SDS011;69030;48.126;7.816;2023-04-21T13:32:02;8.40;;;5.70;;
79566;SDS011;69030;48.126;7.816;2023-04-21T13:34:28;9.45;;;6.75;;
79566;SDS011;69030;48.126;7.816;2023-04-21T13:36:54;9.82;;;7.15;;
79566;SDS011;69030;48.126;7.816;2023-04-21T13:39:20;9.55;;;6.63;;
79566;SDS011;69030;48.126;7.816;2023-04-21T13:41:45;9.32;;;6.63;;
79566;SDS011;69030;48.126;7.816;2023-04-21T13:44:11;7.78;;;6.57;;
79566;SDS011;69030;48.126;7.816;2023-04-21T13:46:37;9.85;;;6.68;;
79566;SDS011;69030;48.126;7.816;2023-04-21T13:49:02;11.32;;;6.63;;
79566;SDS011;69030;48.126;7.816;2023-04-21T13:51:27;10.32;;;5.45;;
79566;SDS011;69030;48.126;7.816;2023-04-21T13:53:54;11.88;;;6.72;;
79566;SDS011;69030;48.126;7.816;2023-04-21T13:56:19;9.02;;;6.82;;
79566;SDS011;69030;48.126;7.816;2023-04-21T13:58:45;8.55;;;6.75;;
79566;SDS011;69030;48.126;7.816;2023-04-21T14:01:12;9.07;;;5.47;;
79566;SDS011;69030;48.126;7.816;2023-04-21T14:03:38;6.90;;;4.75;;
79566;SDS011;69030;48.126;7.816;2023-04-21T14:06:03;10.00;;;4.80;;
79566;SDS011;69030;48.126;7.816;2023-04-21T14:08:29;6.88;;;5.47;;
79566;SDS011;69030;48.126;7.816;2023-04-21T14:10:55;7.90;;;5.00;;
79566;SDS011;69030;48.126;7.816;2023-04-21T14:13:21;5.88;;;4.78;;
79566;SDS011;69030;48.126;7.816;2023-04-21T14:15:47;6.63;;;5.72;;
79566;SDS011;69030;48.126;7.816;2023-04-21T14:18:13;8.65;;;5.47;;
79566;SDS011;69030;48.126;7.816;2023-04-21T14:20:38;7.70;;;4.50;;
79566;SDS011;69030;48.126;7.816;2023-04-21T14:23:03;7.18;;;5.03;;
79566;SDS011;69030;48.126;7.816;2023-04-21T14:25:29;5.85;;;4.35;;
79566;SDS011;69030;48.126;7.816;2023-04-21T14:27:55;5.65;;;3.90;;
79566;SDS011;69030;48.126;7.816;2023-04-21T14:30:20;6.03;;;4.45;;
79566;SDS011;69030;48.126;7.816;2023-04-21T14:32:46;6.18;;;4.65;;
79566;SDS011;69030;48.126;7.816;2023-04-21T14:35:11;5.72;;;4.03;;
79566;SDS011;69030;48.126;7.816;2023-04-21T14:37:37;4.68;;;3.78;;
79566;SDS011;69030;48.126;7.816;2023-04-21T14:40:03;5.03;;;4.20;;
79566;SDS011;69030;48.126;7.816;2023-04-21T14:42:31;5.32;;;4.22;;
79566;SDS011;69030;48.126;7.816;2023-04-21T14:44:56;6.10;;;4.30;;
79566;SDS011;69030;48.126;7.816;2023-04-21T14:47:21;6.03;;;4.22;;
79566;SDS011;69030;48.126;7.816;2023-04-21T14:49:47;7.03;;;4.97;;
79566;SDS011;69030;48.126;7.816;2023-04-21T14:52:16;5.10;;;3.95;;
79566;SDS011;69030;48.126;7.816;2023-04-21T14:54:42;6.10;;;3.42;;
79566;SDS011;69030;48.126;7.816;2023-04-21T14:57:08;5.53;;;4.10;;